Aviation Digital Data Service (ADDS)

Output produced by METARs form (0359 UTC 31 October 2014)
found at http://aviationweather.gov/adds/metars/
 
KBTV 310248Z 3103/3124 36007KT P6SM SCT025 OVC050 
     TEMPO 3103/3107 BKN025 
     FM311600 VRB03KT P6SM BKN050